Holeby, Denmark
Current Conditions -  °F | °C
As of 3:20 PM on Saturday 22 Nov 2014 (Local Time) from EKAV Reporting Station
Broken Clouds Broken Clouds  
Wind Chill: 40°   Ceiling: 1400
Heat Index: 46°   Visibility: 6mi
Dew Point: 39°   Wind: 16mph
Humidity: 76%   Direction: 160°SSE
Pressure: 30.27"   Gusts: NA
Location:  54.71°N, 11.46°E
Report Text: EKAV 221420Z AUTO 16014KT 9999NDV BKN014/// BKN110///08/04 Q1025
Loading
Personal Weather Stations






























Interactive Weather Map New forecast layout! Learn more

10-Day Weather Forecast

Advertisements
Track Severe Weather on mobile